Pueblo Nuevo, Argentina
Current Conditions -  °F | °C
As of 8:00 AM on Monday 20 Oct 2014 (Local Time) from SAAR Reporting Station
Clear Clear  
Wind Chill: 18°   Ceiling: Unl
Heat Index: 18°   Visibility: 6mi
Dew Point: 13°   Wind: 10mph
Humidity: 73%   Direction: 70°ENE
Pressure: 30.15"   Gusts: NA
Location:  33.03°S, 60.62°W
Report Text: SAAR 201100Z 07009KT CAVOK 18/13 Q1021
Loading
Personal Weather Stations






























Interactive Weather Map
Tropical Storm Tracking
New forecast layout! Learn more

10-Day Weather Forecast

Advertisements
Track Severe Weather on mobile